Aberdeen, California
Current Conditions -  °F | °C
As of 7:56 PM on Saturday 25 Oct 2014 (Local Time) from KBIH Reporting Station
Clear Clear  
Wind Chill: 64°   Ceiling: Unl
Heat Index: 64°   Visibility: 10mi
Dew Point:   Wind: 5mph
Humidity: 10%   Direction: 20°NNE
Pressure: 29.95"   Gusts: NA
Location:  36.9237°N, 117.897°W
Report Text: KBIH 260256Z AUTO 02004KT 10SM CLR 18/M15 A2995 RMK AO2 SLP104 T01781150 51005
Loading
Personal Weather Stations






























Interactive Weather Map New forecast layout! Learn more

10-Day Weather Forecast

Advertisements
Track Severe Weather on mobile